Time;durP1;ratioP1;P1;durP2;ratioP2;P2;SDS_P1;SDS_P2;PMS_P1;PMS_P2;Temp;Humidity;BMP_temperature;BMP_pressure;BME280_temperature;BME280_humidity;BME280_pressure;Samples;Min_cycle;Max_cycle;Signal;HPM_P1;HPM_P2
2022/05/29 00:01:42;;;;;;;;;;;20.70;99.10;;;;;;5074289;28;19914;-64
2022/05/29 00:04:07;;;;;;;;;;;20.70;99.10;;;;;;5073901;28;19915;-64
2022/05/29 00:06:35;;;;;;;;;;;20.70;99.10;;;;;;5074245;28;20005;-64
2022/05/29 00:09:01;;;;;;;;;;;20.70;99.10;;;;;;5056050;28;20057;-64
2022/05/29 00:11:27;;;;;;;;;;;20.70;99.10;;;;;;5073737;28;19930;-64
2022/05/29 00:13:52;;;;;;;;;;;20.70;99.10;;;;;;5074045;28;20343;-64
2022/05/29 00:16:18;;;;;;;;;;;20.70;99.10;;;;;;5073841;28;19919;-64
2022/05/29 00:18:43;;;;;;;;;;;20.70;99.10;;;;;;5073156;28;19997;-64
2022/05/29 00:21:09;;;;;;;;;;;20.70;99.10;;;;;;5073693;28;20254;-64
2022/05/29 00:23:37;;;;;;;;;;;20.70;99.30;;;;;;5073983;28;19915;-64
2022/05/29 00:26:02;;;;;;;;;;;20.70;99.00;;;;;;5073970;28;20010;-64
2022/05/29 00:28:28;;;;;;;;;;;20.70;99.00;;;;;;5073878;28;19922;-64
2022/05/29 00:30:53;;;;;;;;;;;20.70;99.10;;;;;;5073857;28;20366;-64
2022/05/29 00:33:19;;;;;;;;;;;20.60;99.10;;;;;;5055574;28;19912;-64
2022/05/29 00:35:44;;;;;;;;;;;20.70;99.10;;;;;;5073798;28;20020;-64
2022/05/29 00:38:11;;;;;;;;;;;20.70;99.10;;;;;;5073561;28;20260;-64
2022/05/29 00:40:41;;;;;;;;;;;20.60;99.10;;;;;;5073500;28;19950;-64
2022/05/29 00:43:07;;;;;;;;;;;20.60;99.20;;;;;;5073954;28;19909;-64
2022/05/29 00:45:36;;;;;;;;;;;20.70;99.10;;;;;;5073791;28;20309;-64
2022/05/29 00:48:04;;;;;;;;;;;20.60;99.10;;;;;;5055671;28;19938;-66
2022/05/29 00:50:30;;;;;;;;;;;20.60;99.10;;;;;;5073383;28;19944;-64
2022/05/29 00:52:55;;;;;;;;;;;20.70;99.10;;;;;;5073390;28;19970;-64
2022/05/29 00:55:25;;;;;;;;;;;20.70;99.10;;;;;;5073205;28;19966;-64
2022/05/29 00:57:55;;;;;;;;;;;20.60;99.10;;;;;;5073362;28;19913;-64
2022/05/29 01:00:24;;;;;;;;;;;20.60;99.10;;;;;;5073335;28;19909;-64
2022/05/29 01:02:50;;;;;;;;;;;20.60;99.10;;;;;;5055829;28;19913;-64
2022/05/29 01:05:17;;;;;;;;;;;20.60;99.10;;;;;;5073560;28;20351;-64
2022/05/29 01:07:47;;;;;;;;;;;20.60;99.10;;;;;;5073598;28;19909;-64
2022/05/29 01:10:13;;;;;;;;;;;20.60;99.20;;;;;;5073187;28;19909;-64
2022/05/29 01:12:41;;;;;;;;;;;20.60;99.20;;;;;;5055347;28;19999;-64
2022/05/29 01:15:16;;;;;;;;;;;20.60;99.30;;;;;;5073414;28;19915;-64
2022/05/29 01:17:49;;;;;;;;;;;20.60;99.20;;;;;;5055571;28;19962;-65
2022/05/29 01:20:30;;;;;;;;;;;20.60;99.10;;;;;;5073377;28;19999;-65
2022/05/29 01:23:24;;;;;;;;;;;20.60;99.10;;;;;;5073323;28;19908;-65
2022/05/29 01:25:53;;;;;;;;;;;20.60;99.10;;;;;;5035648;28;19909;-65
2022/05/29 01:28:33;;;;;;;;;;;20.50;99.10;;;;;;5073395;28;19958;-65
2022/05/29 01:31:14;;;;;;;;;;;20.60;99.10;;;;;;5073804;28;19909;-65
2022/05/29 01:33:46;;;;;;;;;;;20.60;99.10;;;;;;5076577;28;19908;-65
2022/05/29 01:36:25;;;;;;;;;;;20.60;99.10;;;;;;5076562;28;20008;-65
2022/05/29 01:39:06;;;;;;;;;;;20.60;99.40;;;;;;5076925;28;20006;-65
2022/05/29 01:41:35;;;;;;;;;;;20.60;99.10;;;;;;5058989;28;19912;-65
2022/05/29 01:44:01;;;;;;;;;;;20.60;99.10;;;;;;5077150;28;19936;-65
2022/05/29 01:46:30;;;;;;;;;;;20.60;99.10;;;;;;5076723;28;19931;-65
2022/05/29 01:49:01;;;;;;;;;;;20.60;99.10;;;;;;5076423;28;19908;-65
2022/05/29 01:51:37;;;;;;;;;;;20.50;99.10;;;;;;5076614;28;19908;-65
2022/05/29 01:54:21;;;;;;;;;;;20.60;99.10;;;;;;5076715;28;19920;-65
2022/05/29 01:56:48;;;;;;;;;;;20.50;99.20;;;;;;5076213;28;20302;-65
2022/05/29 01:59:46;;;;;;;;;;;20.50;99.10;;;;;;5076509;28;20002;-65
2022/05/29 02:02:14;;;;;;;;;;;20.60;99.10;;;;;;5036074;28;19909;-65
2022/05/29 02:04:43;;;;;;;;;;;20.50;99.10;;;;;;5076325;28;19932;-65
2022/05/29 02:10:21;;;;;;;;;;;20.50;99.20;;;;;;5076426;28;20007;-65
2022/05/29 02:12:51;;;;;;;;;;;20.50;99.30;;;;;;5074054;28;20023;-65
2022/05/29 02:15:19;;;;;;;;;;;20.50;99.30;;;;;;5058484;28;20228;-65
2022/05/29 02:17:48;;;;;;;;;;;20.50;99.30;;;;;;5076116;28;20018;-65
2022/05/29 02:20:13;;;;;;;;;;;20.50;99.30;;;;;;5075723;28;19915;-64
2022/05/29 02:22:40;;;;;;;;;;;20.50;99.40;;;;;;5076044;28;19908;-64
2022/05/29 02:25:11;;;;;;;;;;;20.50;99.40;;;;;;5075800;28;19995;-65
2022/05/29 02:27:57;;;;;;;;;;;20.50;99.50;;;;;;5075948;28;19916;-65
2022/05/29 02:30:45;;;;;;;;;;;20.40;99.50;;;;;;5075668;28;19912;-65
2022/05/29 02:33:25;;;;;;;;;;;20.50;99.50;;;;;;5050723;28;19912;-64
2022/05/29 02:36:19;;;;;;;;;;;20.40;99.50;;;;;;5075288;28;19912;-65
2022/05/29 02:38:49;;;;;;;;;;;20.50;99.50;;;;;;5075607;28;20271;-65
2022/05/29 02:41:23;;;;;;;;;;;20.40;99.50;;;;;;5075432;28;19920;-64
2022/05/29 02:43:58;;;;;;;;;;;20.40;99.50;;;;;;5075342;28;19934;-65
2022/05/29 02:46:43;;;;;;;;;;;20.40;99.60;;;;;;5075350;28;19912;-65
2022/05/29 02:49:11;;;;;;;;;;;20.40;99.60;;;;;;5075445;28;19915;-64
2022/05/29 02:51:51;;;;;;;;;;;20.40;99.50;;;;;;5075518;28;19952;-65
2022/05/29 02:54:25;;;;;;;;;;;20.40;99.60;;;;;;5074869;28;19924;-65
2022/05/29 02:56:54;;;;;;;;;;;20.50;99.60;;;;;;5075272;28;19955;-65
2022/05/29 02:59:25;;;;;;;;;;;20.40;99.50;;;;;;5075056;28;19912;-65
2022/05/29 03:01:57;;;;;;;;;;;20.40;99.50;;;;;;5075262;28;19916;-65
2022/05/29 03:04:23;;;;;;;;;;;20.40;99.50;;;;;;5074885;28;19916;-65
2022/05/29 03:07:07;;;;;;;;;;;20.40;99.60;;;;;;5075141;28;19909;-65
2022/05/29 03:09:42;;;;;;;;;;;20.40;99.50;;;;;;5074971;28;19961;-65
2022/05/29 03:12:27;;;;;;;;;;;20.40;99.50;;;;;;5075081;28;19948;-65
2022/05/29 03:14:58;;;;;;;;;;;20.40;99.50;;;;;;5067360;28;20018;-65
2022/05/29 03:17:30;;;;;;;;;;;20.40;99.60;;;;;;5074673;28;19942;-65
2022/05/29 03:20:01;;;;;;;;;;;20.40;99.60;;;;;;5074580;28;20363;-65
2022/05/29 03:22:47;;;;;;;;;;;20.40;99.60;;;;;;5074819;28;19970;-65
2022/05/29 03:25:15;;;;;;;;;;;20.40;99.60;;;;;;5066944;28;20362;-65
2022/05/29 03:27:45;;;;;;;;;;;20.40;99.50;;;;;;5074283;28;19955;-65
2022/05/29 03:30:14;;;;;;;;;;;20.40;99.70;;;;;;5056752;28;19909;-65
2022/05/29 03:32:41;;;;;;;;;;;20.40;99.50;;;;;;5074385;28;19909;-65
2022/05/29 03:35:16;;;;;;;;;;;20.40;99.60;;;;;;5074583;28;19915;-65
2022/05/29 03:37:42;;;;;;;;;;;20.40;99.50;;;;;;5074308;28;20015;-65
2022/05/29 03:40:08;;;;;;;;;;;20.40;99.50;;;;;;5074354;28;19982;-65
2022/05/29 03:42:34;;;;;;;;;;;20.40;99.60;;;;;;5074390;28;19912;-65
2022/05/29 03:44:59;;;;;;;;;;;20.40;99.60;;;;;;5074516;28;19938;-65
2022/05/29 03:47:24;;;;;;;;;;;20.40;99.60;;;;;;5074393;28;19909;-64
2022/05/29 03:49:50;;;;;;;;;;;20.50;99.60;;;;;;5074447;28;19958;-65
2022/05/29 03:52:15;;;;;;;;;;;20.40;99.60;;;;;;5074354;28;19943;-64
2022/05/29 03:54:41;;;;;;;;;;;20.40;99.60;;;;;;5073710;28;19920;-64
2022/05/29 03:57:06;;;;;;;;;;;20.50;99.50;;;;;;5074208;28;19912;-65
2022/05/29 03:59:32;;;;;;;;;;;20.50;99.50;;;;;;5074295;28;19963;-65
2022/05/29 04:01:57;;;;;;;;;;;20.60;99.40;;;;;;5074030;28;20410;-65
2022/05/29 04:04:23;;;;;;;;;;;20.60;99.40;;;;;;5073966;28;19916;-65
2022/05/29 04:06:48;;;;;;;;;;;20.60;99.40;;;;;;5074187;28;19966;-65
2022/05/29 04:12:04;;;;;;;;;;;20.60;99.40;;;;;;5073950;28;19936;-65
2022/05/29 04:14:30;;;;;;;;;;;20.60;99.40;;;;;;5074043;28;19951;-65
2022/05/29 04:16:56;;;;;;;;;;;20.60;99.40;;;;;;5073658;28;19965;-65
2022/05/29 04:19:21;;;;;;;;;;;20.60;99.40;;;;;;5074423;28;20003;-65
2022/05/29 04:21:49;;;;;;;;;;;20.60;99.40;;;;;;5074014;28;20069;-65
2022/05/29 04:24:21;;;;;;;;;;;20.70;99.40;;;;;;5074188;28;20382;-65
2022/05/29 04:26:50;;;;;;;;;;;20.60;99.40;;;;;;5073782;28;19912;-64
2022/05/29 04:29:16;;;;;;;;;;;20.60;99.40;;;;;;5073888;28;20049;-65
2022/05/29 04:34:26;;;;;;;;;;;20.60;99.60;;;;;;5073666;28;20370;-65
2022/05/29 04:36:52;;;;;;;;;;;20.70;99.40;;;;;;5073876;28;19913;-65
2022/05/29 04:39:17;;;;;;;;;;;20.70;99.40;;;;;;5073592;28;19920;-64
2022/05/29 04:41:42;;;;;;;;;;;20.60;99.40;;;;;;5073943;28;19962;-64
2022/05/29 04:44:08;;;;;;;;;;;20.70;99.40;;;;;;5073943;28;19952;-64
2022/05/29 04:46:34;;;;;;;;;;;20.70;99.60;;;;;;5073468;28;19974;-65
2022/05/29 04:48:59;;;;;;;;;;;20.70;99.40;;;;;;5073556;28;19958;-64
2022/05/29 04:51:25;;;;;;;;;;;20.70;99.40;;;;;;5074035;28;19908;-64
2022/05/29 04:53:50;;;;;;;;;;;20.70;99.40;;;;;;5073571;28;19952;-64
2022/05/29 04:56:15;;;;;;;;;;;20.70;99.40;;;;;;5055746;28;19916;-64
2022/05/29 04:58:41;;;;;;;;;;;20.70;99.40;;;;;;5073652;28;19966;-64
2022/05/29 05:01:06;;;;;;;;;;;20.70;99.50;;;;;;5073672;28;19916;-66
2022/05/29 05:03:32;;;;;;;;;;;20.70;99.40;;;;;;5073574;28;19909;-65
2022/05/29 05:05:58;;;;;;;;;;;20.70;99.40;;;;;;5075690;28;19913;-64
2022/05/29 05:08:24;;;;;;;;;;;20.70;99.40;;;;;;5077370;28;19912;-64
2022/05/29 05:10:49;;;;;;;;;;;20.70;99.40;;;;;;5077668;28;19913;-64
2022/05/29 05:13:15;;;;;;;;;;;20.70;99.50;;;;;;5077136;28;20363;-64
2022/05/29 05:15:41;;;;;;;;;;;20.70;99.50;;;;;;5076867;28;19942;-65
2022/05/29 05:18:07;;;;;;;;;;;20.70;99.50;;;;;;5077184;28;19913;-65
2022/05/29 05:20:33;;;;;;;;;;;20.70;99.50;;;;;;5076908;28;19991;-65
2022/05/29 05:22:59;;;;;;;;;;;20.70;99.50;;;;;;5077097;28;19912;-64
2022/05/29 05:25:25;;;;;;;;;;;20.70;99.50;;;;;;5077081;28;19916;-64
2022/05/29 05:27:51;;;;;;;;;;;20.60;99.50;;;;;;5076717;28;19958;-65
2022/05/29 05:30:16;;;;;;;;;;;20.60;99.50;;;;;;5076746;28;19908;-64
2022/05/29 05:32:42;;;;;;;;;;;20.60;99.50;;;;;;5076742;28;19916;-65
2022/05/29 05:35:08;;;;;;;;;;;20.60;99.60;;;;;;5058942;28;19908;-65
2022/05/29 05:37:35;;;;;;;;;;;20.60;99.60;;;;;;5076848;28;20019;-64
2022/05/29 05:40:05;;;;;;;;;;;20.60;99.60;;;;;;5076736;28;19913;-64
2022/05/29 05:42:31;;;;;;;;;;;20.60;99.60;;;;;;5076652;28;19909;-64
2022/05/29 05:44:56;;;;;;;;;;;20.60;99.60;;;;;;5076183;28;19931;-64
2022/05/29 05:47:22;;;;;;;;;;;20.60;99.60;;;;;;5076689;28;19915;-64
2022/05/29 05:49:51;;;;;;;;;;;20.60;99.60;;;;;;5076247;28;19908;-64
2022/05/29 05:52:17;;;;;;;;;;;20.60;99.60;;;;;;5076254;28;19912;-65
2022/05/29 05:54:43;;;;;;;;;;;20.60;99.60;;;;;;5076444;28;20270;-64
2022/05/29 05:57:08;;;;;;;;;;;20.60;99.60;;;;;;5076409;28;20011;-65
2022/05/29 05:59:34;;;;;;;;;;;20.60;99.60;;;;;;5075945;28;19998;-64
2022/05/29 06:02:00;;;;;;;;;;;20.60;99.60;;;;;;5076015;28;19915;-64
2022/05/29 06:04:25;;;;;;;;;;;20.60;99.60;;;;;;5076115;28;19999;-64
2022/05/29 06:06:51;;;;;;;;;;;20.60;99.60;;;;;;5058256;28;19914;-65
2022/05/29 06:09:19;;;;;;;;;;;20.60;99.60;;;;;;5075817;28;19934;-64
2022/05/29 06:11:45;;;;;;;;;;;20.50;99.60;;;;;;5075529;28;20363;-64
2022/05/29 06:14:11;;;;;;;;;;;20.60;99.60;;;;;;5075423;28;20036;-64
2022/05/29 06:16:36;;;;;;;;;;;20.50;99.60;;;;;;5074842;28;19923;-64
2022/05/29 06:19:02;;;;;;;;;;;20.60;99.60;;;;;;5075724;28;19913;-65
2022/05/29 06:21:28;;;;;;;;;;;20.60;99.60;;;;;;5076118;28;20351;-64
2022/05/29 06:23:54;;;;;;;;;;;20.60;99.60;;;;;;5075744;28;20008;-65
2022/05/29 06:26:19;;;;;;;;;;;20.60;99.60;;;;;;5076089;28;19908;-64
2022/05/29 06:28:45;;;;;;;;;;;20.60;99.60;;;;;;5075851;28;19909;-64
2022/05/29 06:31:11;;;;;;;;;;;20.50;99.60;;;;;;5075625;28;19913;-65
2022/05/29 06:33:37;;;;;;;;;;;20.50;99.60;;;;;;5088697;28;19912;-65
2022/05/29 06:36:15;;;;;;;;;;;20.50;99.60;;;;;;5095797;28;19918;-64
2022/05/29 06:38:42;;;;;;;;;;;20.60;99.60;;;;;;5090379;28;19939;-64
2022/05/29 06:41:08;;;;;;;;;;;20.50;99.60;;;;;;5057598;28;20346;-65
2022/05/29 06:43:34;;;;;;;;;;;20.60;99.60;;;;;;5082062;28;19948;-64
2022/05/29 06:46:00;;;;;;;;;;;20.50;99.60;;;;;;5095597;28;19916;-65
2022/05/29 06:48:26;;;;;;;;;;;20.50;99.60;;;;;;5092377;28;19912;-65
2022/05/29 06:50:52;;;;;;;;;;;20.50;99.60;;;;;;5093095;28;20271;-65
2022/05/29 06:53:17;;;;;;;;;;;20.60;99.60;;;;;;5084750;28;19908;-64
2022/05/29 06:55:52;;;;;;;;;;;20.50;99.60;;;;;;5077154;28;19909;-64
2022/05/29 06:58:18;;;;;;;;;;;20.50;99.60;;;;;;5090017;28;20363;-64
2022/05/29 07:08:55;;;;;;;;;;;20.50;99.60;;;;;;5074828;28;19958;-64
2022/05/29 07:11:22;;;;;;;;;;;20.50;99.60;;;;;;5073973;28;19909;-64
2022/05/29 07:13:48;;;;;;;;;;;20.50;99.70;;;;;;5074266;28;19915;-64
2022/05/29 07:16:15;;;;;;;;;;;20.50;99.70;;;;;;5073871;28;20344;-65
2022/05/29 07:18:40;;;;;;;;;;;20.50;99.70;;;;;;5074162;28;20389;-59
2022/05/29 07:21:06;;;;;;;;;;;20.50;99.70;;;;;;5075860;28;19940;-62
2022/05/29 07:23:33;;;;;;;;;;;20.50;99.60;;;;;;5074055;28;19991;-64
2022/05/29 07:25:59;;;;;;;;;;;20.60;99.70;;;;;;5074069;28;20330;-65
2022/05/29 07:28:25;;;;;;;;;;;20.50;99.60;;;;;;5073400;28;19947;-64
2022/05/29 07:30:51;;;;;;;;;;;20.60;99.70;;;;;;5073692;28;20254;-64
2022/05/29 07:33:16;;;;;;;;;;;20.50;99.60;;;;;;5073634;28;20377;-64
2022/05/29 07:35:42;;;;;;;;;;;20.50;99.70;;;;;;5073593;28;19926;-65
2022/05/29 07:38:08;;;;;;;;;;;20.50;99.70;;;;;;5073595;28;19912;-64
2022/05/29 07:40:33;;;;;;;;;;;20.50;99.70;;;;;;5087262;28;19935;-65
2022/05/29 07:45:44;;;;;;;;;;;20.50;99.70;;;;;;5082504;28;19915;-62
2022/05/29 07:48:09;;;;;;;;;;;20.50;99.70;;;;;;5093464;28;19912;-68
2022/05/29 07:50:35;;;;;;;;;;;20.50;99.70;;;;;;5094265;28;20401;-68
2022/05/29 07:53:00;;;;;;;;;;;20.50;99.70;;;;;;5093172;28;20400;-67
2022/05/29 07:55:26;;;;;;;;;;;20.50;99.70;;;;;;5092941;28;19924;-67
2022/05/29 07:57:53;;;;;;;;;;;20.50;99.60;;;;;;5093422;28;19924;-68
2022/05/29 08:00:21;;;;;;;;;;;20.50;99.60;;;;;;5093315;28;20143;-67
2022/05/29 08:02:46;;;;;;;;;;;20.50;99.60;;;;;;5090897;28;19966;-67
2022/05/29 08:05:13;;;;;;;;;;;20.50;99.60;;;;;;5093783;28;19908;-66
2022/05/29 08:07:39;;;;;;;;;;;20.50;99.50;;;;;;5091630;28;19912;-65
2022/05/29 08:10:06;;;;;;;;;;;20.50;99.60;;;;;;5093302;28;20274;-67
2022/05/29 08:12:31;;;;;;;;;;;20.50;99.50;;;;;;5093463;28;20390;-67
2022/05/29 08:14:57;;;;;;;;;;;20.50;99.40;;;;;;5078157;28;19962;-67
2022/05/29 08:17:22;;;;;;;;;;;20.50;99.20;;;;;;5074481;28;19916;-67
2022/05/29 08:19:48;;;;;;;;;;;20.50;99.20;;;;;;5073430;28;19912;-67
2022/05/29 08:22:14;;;;;;;;;;;20.50;99.10;;;;;;5086994;28;19966;-68
2022/05/29 08:32:56;;;;;;;;;;;20.50;99.00;;;;;;5089704;28;19918;-67
2022/05/29 08:35:21;;;;;;;;;;;20.50;99.00;;;;;;5092209;28;20327;-68
2022/05/29 08:37:47;;;;;;;;;;;20.50;98.90;;;;;;5093211;28;19923;-65
2022/05/29 08:40:12;;;;;;;;;;;20.40;98.80;;;;;;5094417;28;19916;-68
2022/05/29 08:42:40;;;;;;;;;;;20.40;99.00;;;;;;5097065;28;19916;-67
2022/05/29 08:45:06;;;;;;;;;;;20.40;99.30;;;;;;5078760;28;19943;-67
2022/05/29 08:47:31;;;;;;;;;;;20.40;99.20;;;;;;5097477;28;19920;-67
2022/05/29 08:49:57;;;;;;;;;;;20.40;99.10;;;;;;5097712;28;20378;-67
2022/05/29 08:52:22;;;;;;;;;;;20.50;99.10;;;;;;5097172;28;19989;-67
2022/05/29 08:54:48;;;;;;;;;;;20.50;99.10;;;;;;5097019;28;20407;-62
2022/05/29 08:57:21;;;;;;;;;;;20.50;99.00;;;;;;5096620;28;19967;-63
2022/05/29 08:59:57;;;;;;;;;;;20.50;99.00;;;;;;5083314;28;20003;-65
2022/05/29 09:02:22;;;;;;;;;;;20.50;99.00;;;;;;5076833;28;19978;-68
2022/05/29 09:04:59;;;;;;;;;;;20.50;99.00;;;;;;5083580;28;19909;-68
2022/05/29 09:07:25;;;;;;;;;;;20.50;99.10;;;;;;5080810;28;19923;-67
2022/05/29 09:09:53;;;;;;;;;;;20.40;99.00;;;;;;5078379;28;20263;-67
2022/05/29 09:12:24;;;;;;;;;;;20.50;98.90;;;;;;5085743;28;20335;-60
2022/05/29 09:14:52;;;;;;;;;;;20.50;98.90;;;;;;5064167;28;19916;-66
2022/05/29 09:17:29;;;;;;;;;;;20.50;98.90;;;;;;5096705;28;19920;-64
2022/05/29 09:20:00;;;;;;;;;;;20.50;98.80;;;;;;5096038;28;20343;-67
2022/05/29 09:22:30;;;;;;;;;;;20.50;98.80;;;;;;5096484;28;20366;-66
2022/05/29 09:24:58;;;;;;;;;;;20.50;98.60;;;;;;5096920;28;20003;-66
2022/05/29 09:27:24;;;;;;;;;;;20.50;98.50;;;;;;5096701;28;19940;-67
2022/05/29 09:29:50;;;;;;;;;;;20.50;98.50;;;;;;5096975;28;19947;-62
2022/05/29 09:32:18;;;;;;;;;;;20.50;98.70;;;;;;5096515;28;19912;-67
2022/05/29 09:34:51;;;;;;;;;;;20.50;98.40;;;;;;5096319;28;20301;-68
2022/05/29 09:37:23;;;;;;;;;;;20.50;98.40;;;;;;5096634;28;19945;-67
2022/05/29 09:39:53;;;;;;;;;;;20.50;98.40;;;;;;5097055;28;19918;-60
2022/05/29 09:42:39;;;;;;;;;;;20.50;98.30;;;;;;5096059;28;20362;-67
2022/05/29 09:45:12;;;;;;;;;;;20.50;98.30;;;;;;5095474;28;19961;-67
2022/05/29 09:50:24;;;;;;;;;;;20.50;98.30;;;;;;5093484;28;19927;-66
2022/05/29 09:52:49;;;;;;;;;;;20.50;98.20;;;;;;5081530;28;19918;-68
2022/05/29 09:55:21;;;;;;;;;;;20.50;98.20;;;;;;5094997;28;19924;-68
2022/05/29 09:58:01;;;;;;;;;;;20.50;97.60;;;;;;5095339;28;19923;-68
2022/05/29 10:00:35;;;;;;;;;;;20.50;97.10;;;;;;5095035;28;19912;-67
2022/05/29 10:03:01;;;;;;;;;;;20.50;97.40;;;;;;5095574;28;19983;-65
2022/05/29 10:05:28;;;;;;;;;;;20.50;97.90;;;;;;5086709;28;20350;-64
2022/05/29 10:07:56;;;;;;;;;;;20.60;98.20;;;;;;5083730;28;19947;-65
2022/05/29 10:10:24;;;;;;;;;;;20.60;98.30;;;;;;5081389;28;19912;-65
2022/05/29 10:12:50;;;;;;;;;;;20.50;98.50;;;;;;5081587;28;19992;-61
2022/05/29 10:15:25;;;;;;;;;;;20.60;98.70;;;;;;5096180;28;20365;-65
2022/05/29 10:17:51;;;;;;;;;;;20.50;98.90;;;;;;5095624;28;19918;-64
2022/05/29 10:20:27;;;;;;;;;;;20.60;99.00;;;;;;5095612;28;19923;-66
2022/05/29 10:22:55;;;;;;;;;;;20.60;98.90;;;;;;5095193;28;19931;-65
2022/05/29 10:25:28;;;;;;;;;;;20.60;98.90;;;;;;5095862;28;19920;-64
2022/05/29 10:27:56;;;;;;;;;;;20.60;98.90;;;;;;5095537;28;19908;-64
2022/05/29 10:30:45;;;;;;;;;;;20.60;98.90;;;;;;5096058;28;19913;-64
2022/05/29 10:33:13;;;;;;;;;;;20.60;99.00;;;;;;5083737;28;19934;-65
2022/05/29 10:35:40;;;;;;;;;;;20.60;99.00;;;;;;5095706;28;19919;-65
2022/05/29 10:38:13;;;;;;;;;;;20.60;99.00;;;;;;5095525;28;19912;-65
2022/05/29 10:40:40;;;;;;;;;;;20.50;99.00;;;;;;5095052;28;19912;-66
2022/05/29 10:43:05;;;;;;;;;;;20.50;99.10;;;;;;5095033;28;19973;-65
2022/05/29 10:45:32;;;;;;;;;;;20.60;99.10;;;;;;5095307;28;20375;-60
2022/05/29 10:48:00;;;;;;;;;;;20.60;99.00;;;;;;5094737;28;19916;-66
2022/05/29 10:50:44;;;;;;;;;;;20.50;99.00;;;;;;5094838;28;20003;-70
2022/05/29 10:53:31;;;;;;;;;;;20.50;99.00;;;;;;5094899;28;19919;-62
2022/05/29 10:56:02;;;;;;;;;;;20.50;99.10;;;;;;5094159;28;19927;-56
2022/05/29 10:58:31;;;;;;;;;;;20.50;98.90;;;;;;5094344;28;19934;-54
2022/05/29 11:04:05;;;;;;;;;;;20.50;97.90;;;;;;5047898;28;19912;-54
2022/05/29 11:06:56;;;;;;;;;;;20.50;98.20;;;;;;5094919;28;19912;-57
2022/05/29 11:09:24;;;;;;;;;;;20.60;98.40;;;;;;5063831;28;19952;-54
2022/05/29 11:12:05;;;;;;;;;;;20.60;98.40;;;;;;5078595;28;19999;-57
2022/05/29 11:14:30;;;;;;;;;;;20.50;98.40;;;;;;5074776;28;19912;-54
2022/05/29 11:17:15;;;;;;;;;;;20.50;98.50;;;;;;5084768;28;19939;-53
2022/05/29 11:19:59;;;;;;;;;;;20.50;98.60;;;;;;5072958;28;20062;-59
2022/05/29 11:22:30;;;;;;;;;;;20.50;99.00;;;;;;5093399;28;20010;-51
2022/05/29 11:25:05;;;;;;;;;;;20.50;99.40;;;;;;5085716;28;19935;-57
2022/05/29 11:27:47;;;;;;;;;;;20.50;99.90;;;;;;5060875;28;20006;-56
2022/05/29 11:30:18;;;;;;;;;;;20.50;99.80;;;;;;5094438;28;19950;-55
2022/05/29 11:32:50;;;;;;;;;;;20.60;99.80;;;;;;5093903;28;19919;-53
2022/05/29 11:35:21;;;;;;;;;;;20.50;99.70;;;;;;5094037;28;19953;-53
2022/05/29 11:37:56;;;;;;;;;;;20.50;99.60;;;;;;5075744;28;20439;-52
2022/05/29 11:40:26;;;;;;;;;;;20.50;99.60;;;;;;5080076;28;19940;-54
2022/05/29 11:43:05;;;;;;;;;;;20.50;99.50;;;;;;5084690;28;19912;-56
2022/05/29 11:51:15;;;;;;;;;;;20.50;99.40;;;;;;5091887;28;19956;-55
2022/05/29 11:53:53;;;;;;;;;;;20.40;99.40;;;;;;5093298;28;19959;-52
2022/05/29 11:56:34;;;;;;;;;;;20.40;99.40;;;;;;5074443;28;19921;-53
2022/05/29 11:59:14;;;;;;;;;;;20.40;99.40;;;;;;5073985;28;20371;-55
2022/05/29 12:01:42;;;;;;;;;;;20.40;99.30;;;;;;5073931;28;19908;-52
2022/05/29 12:04:07;;;;;;;;;;;20.40;99.40;;;;;;5074191;28;19934;-54
2022/05/29 12:06:34;;;;;;;;;;;20.40;99.40;;;;;;5073968;28;20003;-55
2022/05/29 12:09:03;;;;;;;;;;;20.40;99.40;;;;;;5073917;28;19962;-54
2022/05/29 12:11:49;;;;;;;;;;;20.40;99.40;;;;;;5073893;28;20363;-50
2022/05/29 12:14:35;;;;;;;;;;;20.40;99.40;;;;;;5055696;28;19912;-55
2022/05/29 12:17:20;;;;;;;;;;;20.40;99.30;;;;;;5073892;28;19917;-52
2022/05/29 12:20:01;;;;;;;;;;;20.40;99.30;;;;;;5074478;28;20347;-54
2022/05/29 12:22:30;;;;;;;;;;;20.40;99.30;;;;;;5073450;28;19909;-53
2022/05/29 12:24:56;;;;;;;;;;;20.40;99.30;;;;;;5073500;28;19909;-53
2022/05/29 12:27:24;;;;;;;;;;;20.40;99.30;;;;;;5073340;28;20283;-52
2022/05/29 12:30:04;;;;;;;;;;;20.40;99.30;;;;;;5073838;28;20343;-55
2022/05/29 12:32:31;;;;;;;;;;;20.40;99.30;;;;;;5073451;28;19995;-54
2022/05/29 12:35:15;;;;;;;;;;;20.40;99.30;;;;;;5074094;28;20355;-52
2022/05/29 12:37:40;;;;;;;;;;;20.40;99.30;;;;;;5073555;28;20291;-56
2022/05/29 12:40:24;;;;;;;;;;;20.40;99.30;;;;;;5073713;28;19908;-54
2022/05/29 12:43:09;;;;;;;;;;;20.40;99.30;;;;;;5073631;28;19908;-55
2022/05/29 12:45:37;;;;;;;;;;;20.40;99.30;;;;;;5073400;28;19917;-54
2022/05/29 12:48:15;;;;;;;;;;;20.40;99.30;;;;;;5073558;28;20279;-51
2022/05/29 12:50:46;;;;;;;;;;;20.30;99.30;;;;;;5073667;28;19908;-56
2022/05/29 12:53:30;;;;;;;;;;;20.30;99.30;;;;;;5073827;28;19908;-55
2022/05/29 12:56:16;;;;;;;;;;;20.30;99.30;;;;;;5073504;28;19962;-54
2022/05/29 12:58:49;;;;;;;;;;;20.40;99.30;;;;;;5072910;28;19956;-53
2022/05/29 13:01:21;;;;;;;;;;;20.40;99.40;;;;;;5073536;28;19913;-54
2022/05/29 13:04:10;;;;;;;;;;;20.30;99.30;;;;;;5073538;28;19999;-55
2022/05/29 13:06:54;;;;;;;;;;;20.40;99.60;;;;;;5073489;28;19916;-58
2022/05/29 13:09:20;;;;;;;;;;;20.40;99.30;;;;;;5073409;28;19951;-53
2022/05/29 13:11:57;;;;;;;;;;;20.30;99.40;;;;;;5055433;28;19916;-54
2022/05/29 13:14:25;;;;;;;;;;;20.30;99.30;;;;;;5073256;28;20302;-55
2022/05/29 13:17:08;;;;;;;;;;;20.40;99.40;;;;;;5073438;28;19943;-50
2022/05/29 13:20:00;;;;;;;;;;;20.30;99.30;;;;;;5073421;28;19909;-51
2022/05/29 13:22:44;;;;;;;;;;;20.40;99.40;;;;;;5034535;28;19931;-53
2022/05/29 13:25:09;;;;;;;;;;;20.30;99.40;;;;;;5073164;28;20003;-51
2022/05/29 13:27:35;;;;;;;;;;;20.30;99.30;;;;;;5076028;28;20366;-54
2022/05/29 13:30:02;;;;;;;;;;;20.40;99.30;;;;;;5076713;28;20349;-54
2022/05/29 13:32:32;;;;;;;;;;;20.40;99.40;;;;;;5076542;28;20441;-56
2022/05/29 13:35:03;;;;;;;;;;;20.40;99.30;;;;;;5076901;28;19965;-55
2022/05/29 13:37:31;;;;;;;;;;;20.40;99.40;;;;;;5076241;28;20268;-57
2022/05/29 13:40:05;;;;;;;;;;;20.40;99.40;;;;;;5076638;28;19915;-53
2022/05/29 13:42:41;;;;;;;;;;;20.40;99.40;;;;;;5076480;28;19995;-55
2022/05/29 13:45:19;;;;;;;;;;;20.40;99.30;;;;;;5076662;28;19916;-55
2022/05/29 13:48:03;;;;;;;;;;;20.40;99.40;;;;;;5076642;28;19955;-54
2022/05/29 13:50:32;;;;;;;;;;;20.40;99.30;;;;;;5076412;28;20014;-55
2022/05/29 13:53:00;;;;;;;;;;;20.40;99.30;;;;;;5076623;28;19923;-56
2022/05/29 13:55:34;;;;;;;;;;;20.40;99.30;;;;;;5076409;28;20343;-54
2022/05/29 14:03:58;;;;;;;;;;;20.40;99.30;;;;;;5076174;28;19922;-54
2022/05/29 14:06:27;;;;;;;;;;;20.40;99.30;;;;;;5076257;28;20398;-54
2022/05/29 14:08:55;;;;;;;;;;;20.40;99.30;;;;;;5076226;28;19991;-52
2022/05/29 14:11:21;;;;;;;;;;;20.40;99.30;;;;;;5076223;28;20007;-56
2022/05/29 14:13:51;;;;;;;;;;;20.40;99.30;;;;;;5076079;28;20311;-55
2022/05/29 14:16:17;;;;;;;;;;;20.40;99.30;;;;;;5076019;28;19916;-52
2022/05/29 14:18:47;;;;;;;;;;;20.40;99.20;;;;;;5075904;28;20015;-54
2022/05/29 14:21:18;;;;;;;;;;;20.40;99.30;;;;;;5076307;28;19951;-56
2022/05/29 14:23:53;;;;;;;;;;;20.40;99.10;;;;;;5057761;28;19909;-55
2022/05/29 14:26:47;;;;;;;;;;;20.40;99.30;;;;;;5075875;28;19908;-56
2022/05/29 14:29:28;;;;;;;;;;;20.40;99.30;;;;;;5075637;28;19920;-55
2022/05/29 14:32:04;;;;;;;;;;;20.40;99.30;;;;;;5075543;28;20398;-56
2022/05/29 14:34:35;;;;;;;;;;;20.40;99.30;;;;;;5075495;28;20279;-55
2022/05/29 14:37:11;;;;;;;;;;;20.40;99.30;;;;;;5075679;28;19917;-55
2022/05/29 14:39:56;;;;;;;;;;;20.40;99.30;;;;;;5075461;28;19908;-54
2022/05/29 14:42:21;;;;;;;;;;;20.40;99.30;;;;;;5075117;28;20359;-53
2022/05/29 14:44:49;;;;;;;;;;;20.40;99.30;;;;;;5075054;28;19908;-55
2022/05/29 14:47:40;;;;;;;;;;;20.40;99.30;;;;;;5057378;28;19913;-52
2022/05/29 14:50:09;;;;;;;;;;;20.40;99.30;;;;;;5070148;28;20355;-54
2022/05/29 14:52:47;;;;;;;;;;;20.40;99.30;;;;;;5075490;28;19912;-55
2022/05/29 14:55:15;;;;;;;;;;;20.40;99.30;;;;;;5075242;28;19924;-53
2022/05/29 14:57:51;;;;;;;;;;;20.40;99.30;;;;;;5074694;28;20359;-55
2022/05/29 15:00:21;;;;;;;;;;;20.40;99.30;;;;;;5075023;28;20427;-56
2022/05/29 15:02:47;;;;;;;;;;;20.40;99.40;;;;;;5074666;28;19908;-53
2022/05/29 15:05:14;;;;;;;;;;;20.40;99.30;;;;;;5057082;28;19916;-54
2022/05/29 15:10:36;;;;;;;;;;;20.40;99.40;;;;;;5075027;28;20400;-51
2022/05/29 15:13:04;;;;;;;;;;;20.40;99.40;;;;;;5074714;28;19915;-55
2022/05/29 15:15:39;;;;;;;;;;;20.40;99.30;;;;;;5074735;28;19912;-53
2022/05/29 15:18:07;;;;;;;;;;;20.40;99.40;;;;;;5074340;28;20014;-55
2022/05/29 15:26:11;;;;;;;;;;;20.40;99.30;;;;;;5074329;28;19994;-52
2022/05/29 15:28:38;;;;;;;;;;;20.40;99.30;;;;;;5074709;28;19955;-51